Kartena Airport


Codes: EYKT/
Name: Kartena Airport
City: Kartena
Country: Lithuania
Elevation: 259 ft.

Photos at Kartena Airport


   Photos courtesy of SpottingLog. You can add your own sightings and photos by signing up for a free trial today.



No photos found.

Weather at Kartena Airport


Time (UTC)DescriptionTempratureWindCloud coverageVisibilityPressureHumidity
23-May-2024 21:00Light Rain19°C13 mph, SE100%10000m1019hPa86%
24-May-2024 00:00Overcast Clouds17°C11 mph, SE100%10000m1020hPa89%
24-May-2024 03:00Overcast Clouds15°C11 mph, SE97%10000m1021hPa90%
24-May-2024 06:00Overcast Clouds18°C11 mph, SE99%10000m1022hPa76%
24-May-2024 09:00Broken Clouds23°C11 mph, S70%10000m1023hPa60%
24-May-2024 12:00Light Rain24°C11 mph, SE56%10000m1022hPa59%
24-May-2024 15:00Light Rain23°C9 mph, SE53%10000m1022hPa69%
24-May-2024 18:00Light Rain19°C9 mph, SE67%10000m1022hPa85%
24-May-2024 21:00Light Rain16°C7 mph, SE95%10000m1023hPa92%
25-May-2024 00:00Broken Clouds15°C7 mph, SE70%10000m1023hPa95%
25-May-2024 03:00Broken Clouds14°C9 mph, SE60%10000m1023hPa94%
25-May-2024 06:00Scattered Clouds19°C9 mph, SE39%10000m1023hPa75%
25-May-2024 09:00Clear Sky23°C9 mph, SE8%10000m1023hPa58%
25-May-2024 12:00Light Rain24°C11 mph, SE5%10000m1023hPa55%
25-May-2024 15:00Light Rain23°C11 mph, SE17%10000m1022hPa65%
25-May-2024 18:00Light Rain18°C9 mph, SE9%10000m1023hPa85%
25-May-2024 21:00Clear Sky15°C9 mph, SE0%10000m1024hPa91%
26-May-2024 00:00Clear Sky14°C7 mph, SE0%10000m1024hPa95%
26-May-2024 03:00Scattered Clouds14°C11 mph, SE36%10000m1024hPa88%
26-May-2024 06:00Light Rain17°C13 mph, SE52%10000m1025hPa81%
26-May-2024 09:00Overcast Clouds20°C13 mph, SE90%10000m1025hPa66%
26-May-2024 12:00Broken Clouds23°C13 mph, SE76%10000m1025hPa50%
26-May-2024 15:00Clear Sky23°C13 mph, SE8%10000m1025hPa57%
26-May-2024 18:00Clear Sky18°C9 mph, SE6%10000m1025hPa72%
26-May-2024 21:00Clear Sky15°C9 mph, SE1%10000m1026hPa74%
27-May-2024 00:00Clear Sky13°C9 mph, SE0%10000m1026hPa84%
27-May-2024 03:00Clear Sky12°C9 mph, SE0%10000m1026hPa85%
27-May-2024 06:00Clear Sky18°C11 mph, SE2%10000m1026hPa65%
27-May-2024 09:00Scattered Clouds22°C11 mph, SE36%10000m1026hPa49%
27-May-2024 12:00Broken Clouds24°C11 mph, S56%10000m1025hPa44%
27-May-2024 15:00Overcast Clouds23°C9 mph, SE97%10000m1024hPa55%
27-May-2024 18:00Broken Clouds18°C7 mph, SE55%10000m1023hPa74%
27-May-2024 21:00Few Clouds15°C7 mph, SE13%10000m1023hPa78%
28-May-2024 00:00Clear Sky14°C9 mph, SE10%10000m1023hPa81%
28-May-2024 03:00Clear Sky13°C9 mph, SE8%10000m1023hPa82%
28-May-2024 06:00Clear Sky19°C9 mph, SE9%10000m1022hPa65%
28-May-2024 09:00Broken Clouds23°C7 mph, SE54%10000m1021hPa50%
28-May-2024 12:00Scattered Clouds24°C11 mph, SE36%10000m1020hPa44%
28-May-2024 15:00Broken Clouds21°C9 mph, SE83%10000m1019hPa61%
28-May-2024 18:00Broken Clouds19°C7 mph, SE67%10000m1018hPa75%